Time;durP1;ratioP1;P1;durP2;ratioP2;P2;SDS_P1;SDS_P2;PMS_P1;PMS_P2;Temp;Humidity;BMP_temperature;BMP_pressure;BME280_temperature;BME280_humidity;BME280_pressure;Samples;Min_cycle;Max_cycle;Signal;HPM_P1;HPM_P2
2023/04/26 00:02:23;;;;;;;4.47;3.20;;;3.50;99.90;;;;;;4865429;28;89501;-33
2023/04/26 00:04:57;;;;;;;18.10;2.95;;;3.50;99.90;;;;;;4865556;28;88257;-31
2023/04/26 00:07:23;;;;;;;9.23;2.95;;;3.40;99.90;;;;;;4866174;28;91504;-31
2023/04/26 00:09:50;;;;;;;5.70;3.15;;;3.40;99.90;;;;;;4865622;28;89586;-32
2023/04/26 00:12:16;;;;;;;6.43;2.65;;;3.40;99.90;;;;;;4868233;28;89311;-34
2023/04/26 00:14:42;;;;;;;10.00;3.33;;;3.40;99.90;;;;;;4883880;28;89589;-30
2023/04/26 00:17:08;;;;;;;4.25;3.15;;;3.40;99.90;;;;;;4883124;28;89552;-32
2023/04/26 00:19:33;;;;;;;2.85;2.42;;;3.40;99.90;;;;;;4883774;28;88294;-35
2023/04/26 00:21:59;;;;;;;3.30;2.47;;;3.30;99.90;;;;;;4883071;28;89643;-30
2023/04/26 00:24:25;;;;;;;6.32;3.15;;;3.30;99.90;;;;;;4882710;28;88780;-30
2023/04/26 00:26:54;;;;;;;4.50;2.50;;;3.30;99.90;;;;;;4882997;28;90425;-29
2023/04/26 00:29:19;;;;;;;6.88;2.05;;;3.20;99.90;;;;;;4883476;28;89797;-35
2023/04/26 00:31:45;;;;;;;10.95;3.53;;;3.20;99.90;;;;;;4882375;28;89060;-34
2023/04/26 00:34:10;;;;;;;10.88;3.38;;;3.20;99.90;;;;;;4883959;28;88022;-31
2023/04/26 00:36:36;;;;;;;11.02;3.05;;;3.20;99.90;;;;;;4882132;28;90456;-33
2023/04/26 00:39:02;;;;;;;4.68;2.13;;;3.20;99.90;;;;;;4882834;28;89628;-34
2023/04/26 00:41:27;;;;;;;13.40;3.20;;;3.20;99.90;;;;;;4882817;28;92197;-30
2023/04/26 00:43:53;;;;;;;4.47;3.00;;;3.20;99.90;;;;;;4884078;28;89218;-31
2023/04/26 00:46:19;;;;;;;9.50;3.42;;;3.20;99.90;;;;;;4882729;28;90142;-35
2023/04/26 00:48:46;;;;;;;3.38;2.63;;;3.20;99.90;;;;;;4882401;28;89679;-29
2023/04/26 00:51:12;;;;;;;3.47;2.30;;;3.10;99.90;;;;;;4882604;28;89509;-31
2023/04/26 00:53:39;;;;;;;7.13;2.83;;;3.20;99.90;;;;;;4883679;28;88547;-34
2023/04/26 00:56:07;;;;;;;10.45;3.92;;;3.20;99.90;;;;;;4882705;28;89417;-32
2023/04/26 00:58:33;;;;;;;5.72;2.85;;;3.20;99.90;;;;;;4882987;28;89752;-35
2023/04/26 01:00:59;;;;;;;5.72;2.67;;;3.20;99.90;;;;;;4883126;28;89356;-32
2023/04/26 01:03:25;;;;;;;4.32;2.30;;;3.30;99.90;;;;;;4881931;28;89227;-31
2023/04/26 01:05:52;;;;;;;6.40;2.65;;;3.30;99.90;;;;;;4882863;28;90427;-35
2023/04/26 01:08:19;;;;;;;12.82;3.03;;;3.30;99.90;;;;;;4882790;28;89884;-31
2023/04/26 01:10:47;;;;;;;7.63;2.87;;;3.40;99.90;;;;;;4878125;28;90211;-30
2023/04/26 01:13:13;;;;;;;5.13;2.42;;;3.40;99.90;;;;;;4864217;28;89082;-33
2023/04/26 01:15:48;;;;;;;4.72;3.40;;;3.30;99.90;;;;;;4862887;28;90135;-31
2023/04/26 01:18:14;;;;;;;7.03;3.42;;;3.40;99.90;;;;;;4864051;28;89449;-34
2023/04/26 01:20:41;;;;;;;4.88;3.15;;;3.30;99.90;;;;;;4864080;28;89585;-31
2023/04/26 01:23:08;;;;;;;5.25;2.83;;;3.30;99.90;;;;;;4864021;28;90000;-32
2023/04/26 01:25:34;;;;;;;6.05;3.38;;;3.30;99.90;;;;;;4864278;28;90398;-32
2023/04/26 01:27:59;;;;;;;4.55;2.83;;;3.30;99.90;;;;;;4863520;28;90838;-30
2023/04/26 01:30:25;;;;;;;6.07;3.20;;;3.30;99.90;;;;;;4863817;28;90362;-32
2023/04/26 01:32:51;;;;;;;7.78;2.95;;;3.30;99.90;;;;;;4863953;28;89555;-31
2023/04/26 01:35:17;;;;;;;3.35;2.75;;;3.20;99.90;;;;;;4864257;28;90143;-31
2023/04/26 01:37:42;;;;;;;11.05;2.90;;;3.20;99.90;;;;;;4864653;28;89753;-35
2023/04/26 01:40:09;;;;;;;9.23;3.90;;;3.20;99.90;;;;;;4864223;28;89620;-32
2023/04/26 01:42:34;;;;;;;7.50;4.03;;;3.20;99.90;;;;;;4864539;28;89924;-32
2023/04/26 01:45:00;;;;;;;5.22;3.42;;;3.20;99.90;;;;;;4864591;28;89772;-30
2023/04/26 01:47:26;;;;;;;6.70;3.55;;;3.20;99.90;;;;;;4864198;28;89318;-35
2023/04/26 01:49:52;;;;;;;11.00;3.15;;;3.10;99.90;;;;;;4864175;28;89060;-33
2023/04/26 01:52:17;;;;;;;6.53;3.00;;;3.10;99.90;;;;;;4863015;28;89396;-31
2023/04/26 01:54:43;;;;;;;3.95;2.95;;;3.10;99.90;;;;;;4864450;28;90139;-30
2023/04/26 01:57:09;;;;;;;4.03;2.92;;;3.10;99.90;;;;;;4862527;28;89678;-32
2023/04/26 01:59:34;;;;;;;4.13;2.45;;;3.10;99.90;;;;;;4863904;28;89754;-33
2023/04/26 02:02:00;;;;;;;6.07;2.42;;;3.00;99.90;;;;;;4863828;28;89370;-33
2023/04/26 02:04:27;;;;;;;3.55;2.50;;;3.10;99.90;;;;;;4862889;28;90580;-33
2023/04/26 02:06:52;;;;;;;3.22;2.92;;;3.00;99.90;;;;;;4864575;28;89527;-32
2023/04/26 02:09:18;;;;;;;4.30;2.88;;;3.00;99.90;;;;;;4864050;28;89454;-30
2023/04/26 02:11:44;;;;;;;8.10;3.13;;;3.00;99.90;;;;;;4863907;28;89419;-35
2023/04/26 02:14:09;;;;;;;9.38;3.28;;;3.00;99.90;;;;;;4875990;28;91072;-33
2023/04/26 02:16:35;;;;;;;3.60;2.85;;;3.00;99.90;;;;;;4861686;28;91272;-30
2023/04/26 02:19:04;;;;;;;6.30;4.13;;;2.90;99.90;;;;;;4863983;28;90034;-30
2023/04/26 02:21:29;;;;;;;8.48;2.53;;;2.90;99.90;;;;;;4863745;28;88196;-30
2023/04/26 02:23:56;;;;;;;13.18;2.97;;;2.90;99.90;;;;;;4863690;28;90342;-30
2023/04/26 02:26:21;;;;;;;6.28;3.38;;;2.90;99.90;;;;;;4863832;28;89250;-34
2023/04/26 02:28:47;;;;;;;10.65;3.70;;;2.90;99.90;;;;;;4863261;28;90251;-34
2023/04/26 02:31:13;;;;;;;6.38;2.47;;;2.90;99.90;;;;;;4862867;28;87863;-31
2023/04/26 02:33:38;;;;;;;9.43;2.92;;;2.90;99.90;;;;;;4863045;28;92504;-34
2023/04/26 02:36:05;;;;;;;4.25;2.80;;;2.90;99.90;;;;;;4863514;28;89535;-30
2023/04/26 02:38:35;;;;;;;29.60;3.38;;;2.90;99.90;;;;;;4863756;28;88816;-33
2023/04/26 02:41:03;;;;;;;9.05;2.75;;;3.00;99.90;;;;;;4863875;28;89260;-31
2023/04/26 02:43:28;;;;;;;8.48;2.22;;;3.00;99.90;;;;;;4863131;28;90591;-32
2023/04/26 02:45:54;;;;;;;6.20;2.75;;;3.00;99.90;;;;;;4862885;28;89567;-33
2023/04/26 02:48:20;;;;;;;5.95;3.05;;;3.00;99.90;;;;;;4863475;28;89694;-31
2023/04/26 02:50:48;;;;;;;3.67;3.28;;;3.10;99.90;;;;;;4863486;28;88062;-31
2023/04/26 02:53:14;;;;;;;2.33;2.08;;;3.10;99.90;;;;;;4862428;28;90741;-30
2023/04/26 02:55:40;;;;;;;3.03;2.50;;;3.10;99.90;;;;;;4863204;28;89811;-29
2023/04/26 02:58:06;;;;;;;7.53;3.50;;;3.10;99.90;;;;;;4863042;28;89226;-30
2023/04/26 03:00:33;;;;;;;6.72;2.63;;;3.10;99.90;;;;;;4863145;28;88319;-33
2023/04/26 03:02:58;;;;;;;3.97;3.55;;;3.10;99.90;;;;;;4863179;28;90577;-34
2023/04/26 03:05:24;;;;;;;7.30;3.00;;;3.10;99.90;;;;;;4862615;28;90264;-29
2023/04/26 03:07:51;;;;;;;9.85;4.57;;;3.10;99.90;;;;;;4863203;28;90097;-34
2023/04/26 03:10:17;;;;;;;8.35;2.60;;;3.00;99.90;;;;;;4863204;28;88902;-32
2023/04/26 03:12:42;;;;;;;6.07;2.15;;;3.00;99.90;;;;;;4864215;28;89874;-34
2023/04/26 03:15:08;;;;;;;3.25;2.47;;;3.00;99.90;;;;;;4866262;28;90068;-29
2023/04/26 03:17:34;;;;;;;6.03;3.40;;;3.00;99.90;;;;;;4865752;28;89583;-34
2023/04/26 03:20:00;;;;;;;7.45;2.63;;;3.00;99.90;;;;;;4866170;28;88300;-33
2023/04/26 03:22:25;;;;;;;9.90;3.75;;;2.90;99.90;;;;;;4865834;28;89917;-32
2023/04/26 03:24:51;;;;;;;5.25;2.42;;;2.90;99.90;;;;;;4865914;28;89542;-31
2023/04/26 03:27:16;;;;;;;8.23;3.03;;;2.90;99.90;;;;;;4866722;28;89802;-32
2023/04/26 03:29:42;;;;;;;7.70;2.63;;;2.90;99.90;;;;;;4865899;28;89235;-33
2023/04/26 03:32:08;;;;;;;4.35;2.80;;;2.90;99.90;;;;;;4865013;28;91353;-31
2023/04/26 03:34:33;;;;;;;3.00;2.05;;;2.90;99.90;;;;;;4865616;28;90859;-32
2023/04/26 03:36:59;;;;;;;7.47;2.63;;;2.80;99.90;;;;;;4866161;28;90715;-31
2023/04/26 03:39:24;;;;;;;4.10;2.75;;;2.90;99.90;;;;;;4866471;28;88112;-30
2023/04/26 03:41:51;;;;;;;10.25;3.15;;;2.80;99.90;;;;;;4866000;28;89714;-33
2023/04/26 03:44:16;;;;;;;6.35;2.47;;;2.80;99.90;;;;;;4866048;28;89731;-32
2023/04/26 03:46:42;;;;;;;6.57;3.28;;;2.70;99.90;;;;;;4865635;28;89591;-32
2023/04/26 03:49:08;;;;;;;4.70;2.25;;;2.80;99.90;;;;;;4866055;28;88302;-33
2023/04/26 03:51:33;;;;;;;9.32;4.32;;;2.70;99.90;;;;;;4865791;28;89509;-31
2023/04/26 03:53:59;;;;;;;5.20;3.67;;;2.70;99.90;;;;;;4864901;28;91357;-35
2023/04/26 03:56:25;;;;;;;4.20;3.55;;;2.70;99.90;;;;;;4865336;28;89979;-30
2023/04/26 03:58:51;;;;;;;4.88;3.22;;;2.70;99.90;;;;;;4864634;28;88319;-35
2023/04/26 04:01:16;;;;;;;7.45;2.97;;;2.70;99.90;;;;;;4865683;28;90110;-32
2023/04/26 04:03:42;;;;;;;5.30;2.97;;;2.70;99.90;;;;;;4906101;23;89588;-31
2023/04/26 04:06:08;;;;;;;5.95;3.55;;;2.70;99.90;;;;;;4871495;28;89508;-31
2023/04/26 04:08:33;;;;;;;3.95;2.35;;;2.70;99.90;;;;;;4882554;28;89845;-30
2023/04/26 04:11:00;;;;;;;4.55;2.83;;;2.70;99.90;;;;;;4877719;28;90315;-36
2023/04/26 04:13:26;;;;;;;6.63;2.95;;;2.70;99.90;;;;;;4877815;28;89853;-31
2023/04/26 04:15:51;;;;;;;6.20;2.67;;;2.70;99.90;;;;;;4884100;28;89266;-31
2023/04/26 04:18:17;;;;;;;16.63;4.03;;;2.70;99.90;;;;;;4883357;28;89073;-29
2023/04/26 04:20:43;;;;;;;4.75;3.28;;;2.70;99.90;;;;;;4883837;28;90284;-31
2023/04/26 04:23:08;;;;;;;3.17;2.83;;;2.70;99.90;;;;;;4883033;28;89444;-35
2023/04/26 04:25:34;;;;;;;15.18;3.05;;;2.70;99.90;;;;;;4884488;28;89733;-33
2023/04/26 04:28:01;;;;;;;4.97;2.88;;;2.70;99.90;;;;;;4883875;28;88657;-29
2023/04/26 04:30:30;;;;;;;4.47;2.92;;;2.70;99.90;;;;;;4883860;28;90202;-33
2023/04/26 04:32:58;;;;;;;2.75;2.22;;;2.70;99.90;;;;;;4882015;28;89984;-35
2023/04/26 04:35:27;;;;;;;32.63;3.08;;;2.80;99.90;;;;;;4883922;28;89689;-32
2023/04/26 04:37:55;;;;;;;5.28;3.38;;;2.80;99.90;;;;;;4884590;28;89263;-29
2023/04/26 04:40:23;;;;;;;4.75;3.47;;;2.80;99.90;;;;;;4883470;28;89884;-30
2023/04/26 04:42:49;;;;;;;5.23;2.90;;;2.80;99.90;;;;;;4882133;28;92129;-31
2023/04/26 04:45:16;;;;;;;7.35;3.28;;;2.90;99.90;;;;;;4883385;28;89905;-35
2023/04/26 04:47:42;;;;;;;10.15;4.07;;;2.90;99.90;;;;;;4883549;28;89674;-29
2023/04/26 04:50:08;;;;;;;7.97;3.05;;;2.90;99.90;;;;;;4883398;28;90465;-30
2023/04/26 04:52:34;;;;;;;4.78;2.45;;;3.00;99.90;;;;;;4883354;28;90014;-32
2023/04/26 04:55:00;;;;;;;4.57;2.47;;;3.00;99.90;;;;;;4883313;28;90173;-32
2023/04/26 04:57:26;;;;;;;12.45;3.28;;;3.10;99.90;;;;;;4882743;28;90023;-35
2023/04/26 04:59:52;;;;;;;4.97;2.97;;;3.10;99.90;;;;;;4884055;28;88495;-35
2023/04/26 05:02:18;;;;;;;8.00;3.85;;;3.10;99.90;;;;;;4883101;28;89708;-33
2023/04/26 05:04:44;;;;;;;7.43;2.58;;;3.00;99.90;;;;;;4883114;28;89820;-35
2023/04/26 05:07:09;;;;;;;6.32;2.92;;;3.10;99.90;;;;;;4882480;28;89981;-33
2023/04/26 05:09:36;;;;;;;2.63;2.42;;;3.10;99.90;;;;;;4883177;28;89761;-33
2023/04/26 05:12:01;;;;;;;3.75;2.95;;;3.10;99.90;;;;;;4870443;28;90346;-32
2023/04/26 05:14:29;;;;;;;3.45;2.90;;;3.20;99.90;;;;;;4883497;28;89464;-32
2023/04/26 05:16:54;;;;;;;7.30;2.83;;;3.10;99.90;;;;;;4882801;28;89907;-35
2023/04/26 05:19:20;;;;;;;4.95;2.53;;;3.20;99.90;;;;;;4883045;28;90346;-31
2023/04/26 05:21:45;;;;;;;11.30;3.05;;;3.10;99.90;;;;;;4883235;28;89610;-29
2023/04/26 05:24:11;;;;;;;6.65;2.78;;;3.10;99.90;;;;;;4883566;28;89606;-29
2023/04/26 05:26:37;;;;;;;4.00;2.97;;;3.20;99.90;;;;;;4883588;28;89445;-31
2023/04/26 05:29:02;;;;;;;10.05;2.85;;;3.40;99.90;;;;;;4883124;28;90373;-35
2023/04/26 05:31:28;;;;;;;2.88;2.67;;;3.50;99.90;;;;;;4882407;28;90782;-33
2023/04/26 05:33:53;;;;;;;4.38;2.58;;;3.60;99.90;;;;;;4882919;28;89913;-35
2023/04/26 05:36:20;;;;;;;3.67;2.65;;;3.60;99.90;;;;;;4882346;28;88947;-29
2023/04/26 05:38:45;;;;;;;3.63;2.72;;;3.60;99.90;;;;;;4883384;28;90011;-34
2023/04/26 05:41:11;;;;;;;2.38;1.95;;;3.60;99.90;;;;;;4881312;28;89701;-30
2023/04/26 05:43:37;;;;;;;4.55;3.08;;;3.70;99.90;;;;;;4871814;28;91276;-32
2023/04/26 05:46:02;;;;;;;7.07;2.92;;;3.70;99.90;;;;;;4882736;28;90038;-31
2023/04/26 05:48:28;;;;;;;5.60;3.33;;;3.80;99.90;;;;;;4883562;28;89862;-30
2023/04/26 05:50:54;;;;;;;9.85;3.25;;;3.80;99.90;;;;;;4882401;28;89304;-33
2023/04/26 05:53:20;;;;;;;4.53;3.67;;;3.90;99.90;;;;;;4882391;28;89935;-34
2023/04/26 05:55:46;;;;;;;11.40;2.92;;;3.90;99.90;;;;;;4882178;28;90129;-33
2023/04/26 05:58:11;;;;;;;6.72;3.35;;;4.00;99.90;;;;;;4881908;28;90167;-33
2023/04/26 06:00:37;;;;;;;4.47;3.10;;;4.10;99.90;;;;;;4882531;28;89464;-30
2023/04/26 06:03:04;;;;;;;7.45;3.67;;;4.20;99.90;;;;;;4881968;28;88020;-29
2023/04/26 06:05:30;;;;;;;13.13;3.45;;;4.20;99.90;;;;;;4882851;28;89487;-33
2023/04/26 06:07:56;;;;;;;6.82;2.45;;;4.20;99.90;;;;;;4882287;28;90213;-30
2023/04/26 06:10:22;;;;;;;6.97;3.50;;;4.20;99.90;;;;;;4880068;28;89765;-35
2023/04/26 06:12:47;;;;;;;4.93;2.17;;;4.30;99.90;;;;;;4871957;28;90263;-30
2023/04/26 06:15:13;;;;;;;5.00;2.92;;;4.30;99.90;;;;;;4882524;28;89355;-30
2023/04/26 06:17:40;;;;;;;3.03;2.38;;;4.30;99.90;;;;;;4882654;28;90417;-33
2023/04/26 06:20:08;;;;;;;5.07;3.33;;;4.40;99.90;;;;;;4872763;28;90865;-36
2023/04/26 06:22:35;;;;;;;5.50;3.25;;;4.50;99.90;;;;;;4882522;28;90769;-33
2023/04/26 06:25:01;;;;;;;4.97;2.40;;;4.70;99.90;;;;;;4882455;28;88768;-34
2023/04/26 06:27:27;;;;;;;6.88;3.85;;;4.90;99.90;;;;;;4882721;28;90212;-32
2023/04/26 06:29:52;;;;;;;3.63;2.30;;;5.00;99.90;;;;;;4882254;28;89770;-34
2023/04/26 06:32:18;;;;;;;8.10;3.35;;;5.30;99.90;;;;;;4870363;28;89358;-34
2023/04/26 06:34:44;;;;;;;2.75;2.28;;;5.50;99.90;;;;;;4878323;28;88839;-31
2023/04/26 06:37:10;;;;;;;2.70;2.17;;;5.80;99.90;;;;;;4889598;28;89756;-34
2023/04/26 06:39:39;;;;;;;6.22;2.70;;;6.00;99.90;;;;;;4882546;28;90266;-35
2023/04/26 06:42:05;;;;;;;3.03;2.50;;;6.20;99.90;;;;;;4881884;28;90690;-30
2023/04/26 06:44:31;;;;;;;5.20;2.95;;;6.50;99.90;;;;;;4880879;28;90142;-31
2023/04/26 06:46:57;;;;;;;4.40;2.67;;;6.70;99.90;;;;;;4881593;28;90071;-32
2023/04/26 06:49:23;;;;;;;12.30;2.80;;;7.00;99.90;;;;;;4880919;28;89667;-32
2023/04/26 06:51:51;;;;;;;6.22;2.58;;;7.20;99.90;;;;;;4881960;28;89748;-32
2023/04/26 06:54:17;;;;;;;4.70;2.57;;;7.40;99.90;;;;;;4882408;28;88689;-33
2023/04/26 06:56:43;;;;;;;2.80;1.77;;;7.70;99.90;;;;;;4881716;28;90578;-31
2023/04/26 06:59:08;;;;;;;4.68;2.78;;;7.90;99.90;;;;;;4880653;28;89215;-32
2023/04/26 07:01:34;;;;;;;9.60;3.35;;;8.20;99.90;;;;;;4870669;28;90449;-33
2023/04/26 07:04:02;;;;;;;4.95;2.38;;;8.50;99.90;;;;;;4872140;28;88350;-35
2023/04/26 07:06:28;;;;;;;6.78;2.15;;;8.60;99.90;;;;;;4876935;28;89273;-29
2023/04/26 07:08:54;;;;;;;4.10;3.13;;;8.70;99.90;;;;;;4878583;28;90538;-30
2023/04/26 07:11:20;;;;;;;3.15;2.40;;;8.80;99.90;;;;;;4871533;28;90237;-33
2023/04/26 07:13:46;;;;;;;4.90;3.03;;;8.70;99.90;;;;;;4878447;28;88533;-35
2023/04/26 07:16:12;;;;;;;5.65;2.75;;;8.70;99.90;;;;;;4882393;28;90176;-31
2023/04/26 07:18:39;;;;;;;2.72;1.98;;;8.50;99.90;;;;;;4881064;28;89248;-30
2023/04/26 07:21:05;;;;;;;11.68;3.70;;;8.70;99.90;;;;;;4881732;28;89110;-32
2023/04/26 07:23:31;;;;;;;7.22;2.80;;;8.80;99.90;;;;;;4880770;28;87702;-32
2023/04/26 07:25:56;;;;;;;7.90;1.98;;;9.20;99.90;;;;;;4888325;28;90116;-34
2023/04/26 07:28:22;;;;;;;3.35;2.10;;;9.50;99.90;;;;;;4887893;28;89467;-32
2023/04/26 07:30:47;;;;;;;2.58;2.20;;;9.80;99.90;;;;;;4874726;28;90024;-28
2023/04/26 07:33:13;;;;;;;4.30;2.30;;;9.90;99.90;;;;;;4877967;28;89130;-32
2023/04/26 07:35:39;;;;;;;5.20;2.80;;;9.80;99.90;;;;;;4878824;28;90941;-29
2023/04/26 07:38:05;;;;;;;6.78;2.20;;;9.90;99.90;;;;;;4878500;28;89791;-31
2023/04/26 07:40:31;;;;;;;3.20;2.28;;;10.30;99.90;;;;;;4879266;28;88824;-29
2023/04/26 07:42:57;;;;;;;6.88;3.25;;;10.20;99.90;;;;;;4878314;28;89721;-31
2023/04/26 07:45:22;;;;;;;9.43;2.90;;;10.00;99.90;;;;;;4878009;28;90495;-34
2023/04/26 07:47:48;;;;;;;3.53;2.08;;;10.10;99.90;;;;;;4878176;28;89389;-32
2023/04/26 07:50:13;;;;;;;5.65;2.13;;;9.90;99.90;;;;;;4878626;28;89369;-30
2023/04/26 07:52:39;;;;;;;3.10;2.38;;;9.70;99.90;;;;;;4879166;28;90565;-31
2023/04/26 07:55:05;;;;;;;3.40;2.72;;;9.60;99.90;;;;;;4878387;28;90948;-30
2023/04/26 07:57:31;;;;;;;3.05;1.98;;;9.90;99.90;;;;;;4878326;28;90430;-33
2023/04/26 07:59:57;;;;;;;9.48;2.75;;;9.60;99.90;;;;;;4880143;28;90653;-29
2023/04/26 08:02:22;;;;;;;3.60;1.30;;;9.70;99.90;;;;;;4881819;28;87701;-31
2023/04/26 08:04:51;;;;;;;2.97;2.53;;;9.80;99.90;;;;;;4881158;28;91582;-34
2023/04/26 08:07:20;;;;;;;5.63;2.20;;;9.60;99.90;;;;;;4880889;28;89765;-33
2023/04/26 08:09:46;;;;;;;3.55;2.25;;;9.50;99.90;;;;;;4880618;28;89594;-31
2023/04/26 08:12:12;;;;;;;3.78;2.33;;;9.70;99.90;;;;;;4866481;28;93522;-29
2023/04/26 08:14:38;;;;;;;4.03;1.92;;;10.00;99.90;;;;;;4879707;28;91439;-32
2023/04/26 08:17:04;;;;;;;2.53;2.33;;;10.10;99.90;;;;;;4878157;28;94832;-34
2023/04/26 08:19:32;;;;;;;3.58;1.70;;;10.10;99.90;;;;;;4878604;28;93856;-32
2023/04/26 08:21:58;;;;;;;3.47;2.35;;;10.10;99.90;;;;;;4877137;28;95167;-33
2023/04/26 08:24:23;;;;;;;4.03;2.50;;;10.50;99.90;;;;;;4878285;28;92699;-33
2023/04/26 08:26:49;;;;;;;7.93;3.38;;;10.40;81.60;;;;;;4878772;28;94647;-30
2023/04/26 08:29:15;;;;;;;9.15;2.70;;;10.60;87.70;;;;;;4877809;28;94125;-31
2023/04/26 08:31:41;;;;;;;2.15;1.92;;;10.80;87.50;;;;;;4879052;28;92748;-31
2023/04/26 08:34:10;;;;;;;3.53;2.30;;;10.70;96.20;;;;;;4878340;28;94548;-33
2023/04/26 08:36:36;;;;;;;7.80;2.30;;;10.60;99.20;;;;;;4878096;28;96466;-33
2023/04/26 08:39:03;;;;;;;3.97;1.88;;;10.30;99.90;;;;;;4878419;28;94228;-33
2023/04/26 08:41:34;;;;;;;3.92;2.67;;;10.40;99.90;;;;;;4878885;28;94112;-32
2023/04/26 08:44:03;;;;;;;3.47;2.25;;;10.30;81.00;;;;;;4878835;28;93438;-34
2023/04/26 08:46:33;;;;;;;3.65;2.42;;;10.10;86.50;;;;;;4878041;28;95481;-30
2023/04/26 08:49:31;;;;;;;2.58;2.00;;;10.20;98.00;;;;;;4871630;28;96482;-32
2023/04/26 08:51:57;;;;;;;3.30;1.60;;;10.30;99.90;;;;;;4871313;28;93651;-31
2023/04/26 08:54:24;;;;;;;1.83;1.73;;;10.40;94.00;;;;;;4878046;28;93051;-31
2023/04/26 08:56:51;;;;;;;3.25;2.40;;;10.60;99.10;;;;;;4878379;28;94705;-29
2023/04/26 08:59:18;;;;;;;5.60;2.83;;;10.80;99.30;;;;;;4876969;28;93552;-30
2023/04/26 09:01:44;;;;;;;2.75;1.95;;;11.00;91.10;;;;;;4878813;28;93264;-33
2023/04/26 09:04:10;;;;;;;6.07;2.65;;;11.00;96.40;;;;;;4877567;28;92375;-30
2023/04/26 09:06:37;;;;;;;5.53;2.42;;;10.80;99.90;;;;;;4878171;28;94664;-32
2023/04/26 09:09:06;;;;;;;2.30;1.95;;;10.80;90.70;;;;;;4877609;28;94182;-34
2023/04/26 09:11:54;;;;;;;9.00;2.92;;;10.80;98.70;;;;;;4867669;28;94191;-31
2023/04/26 09:14:20;;;;;;;3.55;2.33;;;10.90;90.80;;;;;;4867347;28;94382;-31
2023/04/26 09:16:47;;;;;;;6.40;2.45;;;11.00;98.20;;;;;;4877613;28;94474;-30
2023/04/26 09:19:12;;;;;;;9.82;3.65;;;10.90;89.80;;;;;;4877738;28;94923;-31
2023/04/26 09:21:45;;;;;;;2.40;2.20;;;11.10;79.00;;;;;;4878148;28;92406;-33
2023/04/26 09:24:12;;;;;;;4.57;2.13;;;11.20;84.20;;;;;;4877835;28;92531;-32
2023/04/26 09:26:38;;;;;;;6.22;2.80;;;11.40;78.70;;;;;;4877796;28;94417;-33
2023/04/26 09:29:15;;;;;;;2.90;2.00;;;11.30;76.80;;;;;;4877370;28;95312;-30
2023/04/26 09:31:46;;;;;;;6.80;2.58;;;11.10;77.50;;;;;;4878771;28;92653;-30
2023/04/26 09:34:13;;;;;;;2.53;2.25;;;11.00;73.70;;;;;;4877302;28;93376;-29
2023/04/26 09:36:57;;;;;;;2.95;2.63;;;11.00;77.60;;;;;;4877319;28;95728;-33
2023/04/26 09:39:52;;;;;;;6.13;2.72;;;11.20;76.00;;;;;;4875749;28;95111;-31
2023/04/26 09:42:18;;;;;;;3.63;2.38;;;11.50;83.60;;;;;;4861444;28;94083;-29
2023/04/26 09:44:45;;;;;;;4.82;2.42;;;11.10;81.60;;;;;;4877531;28;94280;-31
2023/04/26 09:47:11;;;;;;;3.17;2.33;;;11.10;87.20;;;;;;4876286;28;94798;-32
2023/04/26 09:49:50;;;;;;;4.03;2.42;;;10.90;82.20;;;;;;4876677;28;94187;-35
2023/04/26 09:52:17;;;;;;;2.58;1.98;;;11.20;84.80;;;;;;4877130;28;93551;-31
2023/04/26 09:54:52;;;;;;;7.03;2.88;;;11.60;79.70;;;;;;4876195;28;92738;-33
2023/04/26 09:57:20;;;;;;;2.83;2.63;;;12.00;81.70;;;;;;4876641;28;94574;-32
2023/04/26 09:59:51;;;;;;;3.95;2.85;;;12.30;82.20;;;;;;4875513;28;95065;-33
2023/04/26 10:02:23;;;;;;;5.40;2.60;;;11.90;75.20;;;;;;4875935;28;95279;-33
2023/04/26 10:04:52;;;;;;;4.22;2.35;;;10.90;79.40;;;;;;4876791;28;93756;-31
2023/04/26 10:07:20;;;;;;;8.25;2.83;;;11.00;80.80;;;;;;4876251;28;96383;-32
2023/04/26 10:09:46;;;;;;;3.55;2.47;;;10.60;82.30;;;;;;4876001;28;94324;-33
2023/04/26 10:12:17;;;;;;;10.40;2.95;;;10.50;80.90;;;;;;4864174;28;92977;-34
2023/04/26 10:14:45;;;;;;;3.35;2.35;;;10.50;90.60;;;;;;4876320;28;93348;-33
2023/04/26 10:17:11;;;;;;;;;;;10.60;87.60;;;;;;4876700;28;94866;-32
2023/04/26 10:19:38;;;;;;;2.35;2.15;;;10.50;79.70;;;;;;4878298;28;94051;-30
2023/04/26 10:22:12;;;;;;;2.42;2.22;;;10.40;83.50;;;;;;4876075;28;93259;-29
2023/04/26 10:24:38;;;;;;;6.82;1.75;;;10.40;87.80;;;;;;4875769;28;93002;-34
2023/04/26 10:27:04;;;;;;;4.72;1.90;;;10.50;88.50;;;;;;4875751;28;96569;-33
2023/04/26 10:29:55;;;;;;;2.53;1.85;;;10.30;85.50;;;;;;4877643;28;94503;-30
2023/04/26 10:32:21;;;;;;;3.17;2.13;;;10.30;87.10;;;;;;4876962;28;93276;-31
2023/04/26 10:35:08;;;;;;;3.28;2.10;;;10.20;91.00;;;;;;4876758;28;93128;-31
2023/04/26 10:37:34;;;;;;;2.08;1.90;;;10.10;92.20;;;;;;4877174;28;94657;-34
2023/04/26 10:40:23;;;;;;;6.45;3.08;;;10.10;99.90;;;;;;4876562;28;94679;-33
2023/04/26 10:42:48;;;;;;;8.38;3.22;;;10.10;99.90;;;;;;4876959;28;93212;-33
2023/04/26 10:45:28;;;;;;;5.05;2.65;;;10.00;99.90;;;;;;4877221;28;92829;-32
2023/04/26 10:48:27;;;;;;;3.20;2.63;;;9.70;99.90;;;;;;4876989;28;93522;-31
2023/04/26 10:51:07;;;;;;;5.07;3.17;;;9.80;99.90;;;;;;4876686;28;94481;-30
2023/04/26 10:53:47;;;;;;;5.68;3.13;;;9.80;99.90;;;;;;4876626;28;95284;-31
2023/04/26 10:56:22;;;;;;;3.15;2.83;;;9.70;99.90;;;;;;4876532;28;94500;-29
2023/04/26 10:58:48;;;;;;;3.15;2.17;;;9.70;99.90;;;;;;4876319;28;95070;-34
2023/04/26 11:01:16;;;;;;;4.18;3.05;;;9.70;99.90;;;;;;4876747;28;94499;-33
2023/04/26 11:04:02;;;;;;;6.50;3.90;;;9.80;99.90;;;;;;4875887;28;94139;-30
2023/04/26 11:06:51;;;;;;;11.70;3.60;;;9.90;99.90;;;;;;4875586;28;92127;-31
2023/04/26 11:09:52;;;;;;;4.75;3.05;;;10.00;99.90;;;;;;4875953;28;95056;-31
2023/04/26 11:12:17;;;;;;;5.93;2.75;;;10.00;99.90;;;;;;4835641;29;94898;-31
2023/04/26 11:14:45;;;;;;;9.30;3.97;;;9.90;99.90;;;;;;4868161;28;94573;-34
2023/04/26 11:17:11;;;;;;;5.85;2.90;;;10.10;99.90;;;;;;4876392;28;93458;-34
2023/04/26 11:19:37;;;;;;;3.50;2.83;;;10.10;99.90;;;;;;4874797;28;95163;-33
2023/04/26 11:22:07;;;;;;;2.85;2.55;;;10.10;99.90;;;;;;4876379;28;95410;-33
2023/04/26 11:24:37;;;;;;;6.28;3.03;;;10.10;92.70;;;;;;4876810;28;93600;-32
2023/04/26 11:27:12;;;;;;;3.40;2.97;;;10.00;99.90;;;;;;4875898;28;94543;-30
2023/04/26 11:29:38;;;;;;;4.80;2.90;;;10.10;96.60;;;;;;4876510;28;95071;-30
2023/04/26 11:32:04;;;;;;;5.13;2.60;;;10.00;96.10;;;;;;4874585;28;95405;-30
2023/04/26 11:34:38;;;;;;;5.18;2.47;;;10.10;99.90;;;;;;4877327;28;93477;-33
2023/04/26 11:37:05;;;;;;;3.83;2.78;;;10.00;99.90;;;;;;4879848;28;92351;-33
2023/04/26 11:39:31;;;;;;;4.68;3.67;;;10.20;87.50;;;;;;4878676;28;95106;-34
2023/04/26 11:42:12;;;;;;;6.35;2.42;;;10.10;91.50;;;;;;4879539;28;94786;-33
2023/04/26 11:44:39;;;;;;;5.03;3.38;;;10.10;93.50;;;;;;4879493;28;94738;-31
2023/04/26 11:47:06;;;;;;;3.30;3.00;;;10.10;90.50;;;;;;4879669;28;92932;-31
2023/04/26 11:49:34;;;;;;;5.22;2.78;;;10.30;91.80;;;;;;4879696;28;94680;-31
2023/04/26 11:52:00;;;;;;;4.78;2.25;;;10.20;89.00;;;;;;4878848;28;94497;-34
2023/04/26 11:54:30;;;;;;;3.53;2.83;;;10.40;87.30;;;;;;4879472;28;93996;-31
2023/04/26 11:56:57;;;;;;;3.05;2.60;;;10.50;86.30;;;;;;4879261;28;92457;-29
2023/04/26 11:59:24;;;;;;;3.05;2.75;;;10.60;96.40;;;;;;4878508;28;94688;-33
2023/04/26 12:01:53;;;;;;;4.43;2.95;;;10.60;73.20;;;;;;4879737;28;94215;-30
2023/04/26 12:04:19;;;;;;;3.63;3.05;;;10.50;78.20;;;;;;4878337;28;92978;-32
2023/04/26 12:06:45;;;;;;;7.88;3.45;;;10.50;73.90;;;;;;4879724;28;94101;-30
2023/04/26 12:09:11;;;;;;;7.88;3.33;;;10.50;71.70;;;;;;4876235;28;96924;-31
2023/04/26 12:11:38;;;;;;;5.60;3.03;;;10.70;79.00;;;;;;4866683;28;95563;-30
2023/04/26 12:14:04;;;;;;;5.28;2.88;;;10.80;73.70;;;;;;4876377;28;92992;-32
2023/04/26 12:16:30;;;;;;;2.78;2.05;;;10.90;75.20;;;;;;4877256;28;94393;-32
2023/04/26 12:18:56;;;;;;;3.42;2.28;;;11.10;76.30;;;;;;4876469;28;94676;-33
2023/04/26 12:21:23;;;;;;;2.45;2.25;;;11.00;76.50;;;;;;4877325;28;94794;-29
2023/04/26 12:23:49;;;;;;;4.28;2.53;;;11.00;75.30;;;;;;4877567;28;93490;-33
2023/04/26 12:26:15;;;;;;;4.68;2.33;;;11.00;73.30;;;;;;4877556;28;93663;-32
2023/04/26 12:28:40;;;;;;;4.93;2.58;;;11.20;73.00;;;;;;4878432;28;94964;-29
2023/04/26 12:31:07;;;;;;;3.28;1.83;;;11.10;77.90;;;;;;4877493;28;94442;-34
2023/04/26 12:33:32;;;;;;;3.83;2.45;;;11.20;76.00;;;;;;4878965;28;94140;-32
2023/04/26 12:36:18;;;;;;;2.97;2.60;;;11.10;74.50;;;;;;4878148;28;93033;-32
2023/04/26 12:38:44;;;;;;;5.10;2.83;;;10.90;75.20;;;;;;4878015;28;94717;-31
2023/04/26 12:41:10;;;;;;;3.00;2.28;;;11.20;78.80;;;;;;4878778;28;93494;-31
2023/04/26 12:43:35;;;;;;;3.30;2.33;;;11.20;76.20;;;;;;4879105;28;94821;-30
2023/04/26 12:46:01;;;;;;;3.20;2.42;;;11.20;74.70;;;;;;4878876;28;94654;-34
2023/04/26 12:48:27;;;;;;;4.30;3.60;;;11.00;73.80;;;;;;4878403;28;95092;-35
2023/04/26 12:50:53;;;;;;;6.88;3.00;;;10.70;85.20;;;;;;4878863;28;94115;-29
2023/04/26 12:53:19;;;;;;;7.20;3.78;;;10.70;99.90;;;;;;4893232;28;92250;-34
2023/04/26 12:55:44;;;;;;;12.27;3.55;;;10.40;99.90;;;;;;4878092;28;92621;-30